createdAt,value
2022-10-05T00:01:48.920Z,15.40
2022-10-05T00:04:29.144Z,15.30
2022-10-05T00:07:12.609Z,15.28
2022-10-05T00:09:39.673Z,15.51
2022-10-05T00:12:18.805Z,15.54
2022-10-05T00:14:49.721Z,15.45
2022-10-05T00:17:22.590Z,15.33
2022-10-05T00:19:54.013Z,15.22
2022-10-05T00:22:22.343Z,15.39
2022-10-05T00:24:55.062Z,15.53
2022-10-05T00:27:31.519Z,15.40
2022-10-05T00:30:01.174Z,15.43
2022-10-05T00:32:28.015Z,15.40
2022-10-05T00:34:54.983Z,15.44
2022-10-05T00:37:21.776Z,15.38
2022-10-05T00:39:49.810Z,15.54
2022-10-05T00:43:06.432Z,15.40
2022-10-05T00:45:42.313Z,15.17
2022-10-05T00:48:15.175Z,15.23
2022-10-05T00:50:57.259Z,15.04
2022-10-05T00:53:58.705Z,15.19
2022-10-05T00:56:53.520Z,15.13
2022-10-05T00:59:52.650Z,15.05
2022-10-05T01:02:36.741Z,15.16
2022-10-05T01:05:15.931Z,15.16
2022-10-05T01:08:20.628Z,14.99
2022-10-05T01:10:52.728Z,14.98
2022-10-05T01:13:38.296Z,15.05
2022-10-05T01:16:08.402Z,15.13
2022-10-05T01:18:51.688Z,14.96
2022-10-05T01:21:24.649Z,15.12
2022-10-05T01:24:10.161Z,15.12
2022-10-05T01:26:44.131Z,15.16
2022-10-05T01:29:18.853Z,15.15
2022-10-05T01:32:02.544Z,14.94
2022-10-05T01:34:44.175Z,14.93
2022-10-05T01:37:29.399Z,15.02
2022-10-05T01:40:10.127Z,14.94
2022-10-05T01:42:59.505Z,14.97
2022-10-05T01:45:44.697Z,14.81
2022-10-05T01:48:20.832Z,14.61
2022-10-05T01:50:54.242Z,14.71
2022-10-05T01:53:30.295Z,14.75
2022-10-05T01:56:05.128Z,14.60
2022-10-05T01:58:49.106Z,14.74
2022-10-05T02:01:15.973Z,14.80
2022-10-05T02:03:51.892Z,14.66
2022-10-05T02:06:25.731Z,14.81
2022-10-05T02:09:02.567Z,14.72
2022-10-05T02:11:29.877Z,14.68
2022-10-05T02:14:02.194Z,14.87
2022-10-05T02:16:39.256Z,14.62
2022-10-05T02:19:06.111Z,14.54
2022-10-05T02:21:34.814Z,14.57
2022-10-05T02:24:09.856Z,14.62
2022-10-05T02:26:39.300Z,14.35
2022-10-05T02:29:10.476Z,14.54
2022-10-05T02:31:43.367Z,14.64
2022-10-05T02:34:31.924Z,14.69
2022-10-05T02:37:17.523Z,14.59
2022-10-05T02:40:04.856Z,14.57
2022-10-05T02:42:38.963Z,14.59
2022-10-05T02:45:21.895Z,14.43
2022-10-05T02:48:07.667Z,14.45
2022-10-05T02:50:41.567Z,14.51
2022-10-05T02:53:08.472Z,14.24
2022-10-05T02:55:41.388Z,14.35
2022-10-05T02:58:16.499Z,14.41
2022-10-05T03:00:55.630Z,14.46
2022-10-05T03:03:36.648Z,14.43
2022-10-05T03:06:13.109Z,14.42
2022-10-05T03:08:48.730Z,14.28
2022-10-05T03:11:23.070Z,14.25
2022-10-05T03:14:14.388Z,14.40
2022-10-05T03:16:51.927Z,14.57
2022-10-05T03:19:40.189Z,14.52
2022-10-05T03:22:40.435Z,14.39
2022-10-05T03:25:35.163Z,14.50
2022-10-05T03:28:44.980Z,14.57
2022-10-05T03:31:41.649Z,14.48
2022-10-05T03:34:18.697Z,14.51
2022-10-05T03:36:56.382Z,14.46
2022-10-05T03:39:38.604Z,14.45
2022-10-05T03:42:20.359Z,14.38
2022-10-05T03:45:08.444Z,14.39
2022-10-05T03:48:01.582Z,14.16
2022-10-05T03:51:13.106Z,14.06
2022-10-05T03:53:51.165Z,13.94
2022-10-05T03:56:36.323Z,13.75
2022-10-05T03:59:32.778Z,13.64
2022-10-05T04:02:06.221Z,13.28
2022-10-05T04:04:41.309Z,13.08
2022-10-05T04:07:19.172Z,12.96
2022-10-05T04:09:51.124Z,12.93
2022-10-05T04:12:35.858Z,13.07
2022-10-05T04:15:29.086Z,13.29
2022-10-05T04:18:05.484Z,13.63
2022-10-05T04:20:44.363Z,13.92
2022-10-05T04:23:22.716Z,14.07
2022-10-05T04:25:56.288Z,14.34
2022-10-05T04:28:41.701Z,14.14
2022-10-05T04:31:14.104Z,14.32
2022-10-05T04:33:48.439Z,14.50
2022-10-05T04:36:36.308Z,14.51
2022-10-05T04:39:15.390Z,14.61
2022-10-05T04:41:54.769Z,14.79
2022-10-05T04:44:40.308Z,14.93
2022-10-05T04:47:39.362Z,14.99
2022-10-05T04:50:29.717Z,15.09
2022-10-05T04:53:27.594Z,15.31
2022-10-05T04:56:12.918Z,15.53
2022-10-05T04:58:58.030Z,15.52
2022-10-05T05:01:44.362Z,15.32
2022-10-05T05:04:25.367Z,15.19
2022-10-05T05:07:17.152Z,14.98
2022-10-05T05:10:19.420Z,15.10
2022-10-05T05:13:14.535Z,15.12
2022-10-05T05:16:00.131Z,15.24
2022-10-05T05:18:51.455Z,15.06
2022-10-05T05:21:39.435Z,15.10
2022-10-05T05:24:15.069Z,15.57
2022-10-05T05:27:09.820Z,15.69
2022-10-05T05:29:40.166Z,15.69
2022-10-05T05:32:13.559Z,15.65
2022-10-05T05:34:52.701Z,16.02
2022-10-05T05:37:22.604Z,16.05
2022-10-05T05:40:00.988Z,16.02
2022-10-05T05:42:46.902Z,16.01
2022-10-05T05:45:40.677Z,16.18
2022-10-05T05:48:38.706Z,16.74
2022-10-05T05:51:13.115Z,17.31
2022-10-05T05:54:08.289Z,17.74
2022-10-05T05:56:43.624Z,17.93
2022-10-05T05:59:35.611Z,17.15
2022-10-05T06:02:12.621Z,17.80
2022-10-05T06:04:47.066Z,18.01
2022-10-05T06:07:19.806Z,18.25
2022-10-05T06:09:47.747Z,18.73
2022-10-05T06:12:34.642Z,18.29
2022-10-05T06:16:01.872Z,18.13
2022-10-05T06:18:32.608Z,17.24
2022-10-05T06:21:20.524Z,17.18
2022-10-05T06:24:13.340Z,17.05
2022-10-05T06:27:21.139Z,16.91
2022-10-05T06:30:07.917Z,16.82
2022-10-05T06:32:52.867Z,16.70
2022-10-05T06:35:28.216Z,16.42
2022-10-05T06:38:22.011Z,16.41
2022-10-05T06:41:04.704Z,16.48
2022-10-05T06:43:31.532Z,16.74
2022-10-05T06:47:00.848Z,17.09
2022-10-05T06:50:19.192Z,17.56
2022-10-05T06:53:35.676Z,17.67
2022-10-05T06:56:18.402Z,17.96
2022-10-05T06:59:03.967Z,17.84
2022-10-05T07:01:47.682Z,18.11
2022-10-05T07:04:45.857Z,18.38
2022-10-05T07:07:30.982Z,18.47
2022-10-05T07:10:21.246Z,18.41
2022-10-05T07:13:07.598Z,18.66
2022-10-05T07:15:40.483Z,19.02
2022-10-05T07:18:49.572Z,19.18
2022-10-05T07:21:22.071Z,19.51
2022-10-05T07:23:57.901Z,19.87
2022-10-05T07:26:41.157Z,20.23
2022-10-05T07:29:46.907Z,20.77
2022-10-05T07:32:26.423Z,21.09
2022-10-05T07:35:33.719Z,20.79
2022-10-05T07:38:07.478Z,20.82
2022-10-05T07:41:07.608Z,20.90
2022-10-05T07:44:12.418Z,21.12
2022-10-05T07:46:52.651Z,21.41
2022-10-05T07:49:59.913Z,21.53
2022-10-05T07:52:36.752Z,21.78
2022-10-05T07:55:26.717Z,21.88
2022-10-05T07:58:11.419Z,21.89
2022-10-05T08:01:00.590Z,21.83
2022-10-05T08:03:54.211Z,22.15
2022-10-05T08:06:47.569Z,22.44
2022-10-05T08:09:23.959Z,22.43
2022-10-05T08:11:56.462Z,22.28
2022-10-05T08:14:28.721Z,21.87
2022-10-05T08:16:59.913Z,21.92
2022-10-05T08:19:40.313Z,21.77
2022-10-05T08:22:12.818Z,21.92
2022-10-05T08:24:53.485Z,22.34
2022-10-05T08:27:45.510Z,22.59
2022-10-05T08:30:15.880Z,22.94
2022-10-05T08:33:21.013Z,22.98
2022-10-05T08:36:19.803Z,22.79
2022-10-05T08:38:47.969Z,23.29
2022-10-05T08:41:25.390Z,22.63
2022-10-05T08:44:10.729Z,22.75
2022-10-05T08:47:18.941Z,23.13
2022-10-05T08:49:57.348Z,22.94
2022-10-05T08:52:36.611Z,23.15
2022-10-05T08:55:21.788Z,22.62
2022-10-05T08:58:03.640Z,22.15
2022-10-05T09:00:49.058Z,21.98
2022-10-05T09:03:34.896Z,22.25
2022-10-05T09:06:23.420Z,22.26
2022-10-05T09:09:14.646Z,22.38
2022-10-05T09:11:57.597Z,22.32
2022-10-05T09:15:24.407Z,22.13
2022-10-05T09:18:17.190Z,23.16
2022-10-05T09:20:55.268Z,23.50
2022-10-05T09:23:44.961Z,23.50
2022-10-05T09:26:30.311Z,23.03
2022-10-05T09:29:03.087Z,23.35
2022-10-05T09:32:24.778Z,22.20
2022-10-05T09:35:09.812Z,21.29
2022-10-05T09:38:01.048Z,21.16
2022-10-05T09:41:07.067Z,21.07
2022-10-05T09:43:42.822Z,21.11
2022-10-05T09:46:46.816Z,21.12
2022-10-05T09:49:50.845Z,21.11
2022-10-05T09:52:54.769Z,21.05
2022-10-05T09:55:49.560Z,21.13
2022-10-05T09:58:44.601Z,21.06
2022-10-05T10:01:36.757Z,20.57
2022-10-05T10:04:23.372Z,20.69
2022-10-05T10:07:27.896Z,20.70
2022-10-05T10:10:23.505Z,20.82
2022-10-05T10:13:03.576Z,21.02
2022-10-05T10:15:59.004Z,21.25
2022-10-05T10:18:34.666Z,22.11
2022-10-05T10:21:24.031Z,22.84
2022-10-05T10:24:16.119Z,23.61
2022-10-05T10:26:58.253Z,23.96
2022-10-05T10:29:41.154Z,24.13
2022-10-05T10:32:10.712Z,24.08
2022-10-05T10:35:11.690Z,24.79
2022-10-05T10:38:15.581Z,25.34
2022-10-05T10:41:22.262Z,25.76
2022-10-05T10:44:26.837Z,25.03
2022-10-05T10:47:15.681Z,24.38
2022-10-05T10:50:19.778Z,24.67
2022-10-05T10:53:13.759Z,25.28
2022-10-05T10:56:07.282Z,24.31
2022-10-05T10:58:51.819Z,24.52
2022-10-05T11:01:42.713Z,25.11
2022-10-05T11:04:46.353Z,25.10
2022-10-05T11:07:42.469Z,24.82
2022-10-05T11:11:01.551Z,25.03
2022-10-05T11:13:46.532Z,25.39
2022-10-05T11:16:31.052Z,25.29
2022-10-05T11:19:20.574Z,25.14
2022-10-05T11:22:12.503Z,25.22
2022-10-05T11:25:17.043Z,25.42
2022-10-05T11:27:53.778Z,25.36
2022-10-05T11:30:46.214Z,25.49
2022-10-05T11:33:44.237Z,25.24
2022-10-05T11:36:38.356Z,25.26
2022-10-05T11:39:23.841Z,26.00
2022-10-05T11:42:09.044Z,26.33
2022-10-05T11:44:45.005Z,25.04
2022-10-05T11:47:26.723Z,23.92
2022-10-05T11:50:20.480Z,23.80
2022-10-05T11:55:36.205Z,22.89
2022-10-05T11:58:17.584Z,23.88
2022-10-05T12:01:03.948Z,24.68
2022-10-05T12:03:47.104Z,25.37
2022-10-05T12:06:35.406Z,25.84
2022-10-05T12:09:18.108Z,25.66
2022-10-05T12:12:13.214Z,25.88
2022-10-05T12:14:49.953Z,25.63
2022-10-05T12:17:34.872Z,25.92
2022-10-05T12:20:26.117Z,25.68
2022-10-05T12:23:04.765Z,25.96
2022-10-05T12:25:48.377Z,26.13
2022-10-05T12:28:22.096Z,26.18
2022-10-05T12:31:00.414Z,26.27
2022-10-05T12:33:51.350Z,26.11
2022-10-05T12:36:26.360Z,25.76
2022-10-05T12:39:05.094Z,25.51
2022-10-05T12:42:13.556Z,25.24
2022-10-05T12:45:04.518Z,24.84
2022-10-05T12:48:15.103Z,24.38
2022-10-05T12:50:48.078Z,24.12
2022-10-05T12:53:39.196Z,24.16
2022-10-05T12:56:19.266Z,24.12
2022-10-05T12:59:11.851Z,24.02
2022-10-05T13:01:49.460Z,24.02
2022-10-05T13:04:21.839Z,23.78
2022-10-05T13:07:16.311Z,23.55
2022-10-05T13:09:57.086Z,23.04
2022-10-05T13:12:42.495Z,22.86
2022-10-05T13:15:40.626Z,23.01
2022-10-05T13:18:26.311Z,22.59
2022-10-05T13:20:59.650Z,22.75
2022-10-05T13:23:55.099Z,22.71
2022-10-05T13:26:34.698Z,22.43
2022-10-05T13:29:20.041Z,22.20
2022-10-05T13:31:53.429Z,22.09
2022-10-05T13:35:11.528Z,22.20
2022-10-05T13:37:49.800Z,22.09
2022-10-05T13:40:26.888Z,21.58
2022-10-05T13:43:26.061Z,21.89
2022-10-05T13:45:57.429Z,21.77
2022-10-05T13:48:52.251Z,22.37
2022-10-05T13:51:25.187Z,23.03
2022-10-05T13:54:01.030Z,23.39
2022-10-05T13:56:36.910Z,23.53
2022-10-05T13:59:51.346Z,23.79
2022-10-05T14:02:23.128Z,23.87
2022-10-05T14:05:29.219Z,23.84
2022-10-05T14:07:58.543Z,23.82
2022-10-05T14:10:33.947Z,23.98
2022-10-05T14:13:09.751Z,23.85
2022-10-05T14:15:41.959Z,23.27
2022-10-05T14:18:30.907Z,22.73
2022-10-05T14:21:25.378Z,22.69
2022-10-05T14:23:53.296Z,22.46
2022-10-05T14:26:26.099Z,22.29
2022-10-05T14:29:14.314Z,21.91
2022-10-05T14:32:03.154Z,21.80
2022-10-05T14:34:35.301Z,21.63
2022-10-05T14:37:07.222Z,21.41
2022-10-05T14:39:35.568Z,21.44
2022-10-05T14:42:17.039Z,21.64
2022-10-05T14:44:45.178Z,21.39
2022-10-05T14:47:22.798Z,21.52
2022-10-05T14:50:17.977Z,21.38
2022-10-05T14:53:01.030Z,21.72
2022-10-05T14:55:45.222Z,21.86
2022-10-05T14:58:24.302Z,22.03
2022-10-05T15:01:02.323Z,22.10
2022-10-05T15:04:01.736Z,22.15
2022-10-05T15:06:55.795Z,22.08
2022-10-05T15:09:49.795Z,21.94
2022-10-05T15:12:29.746Z,21.73
2022-10-05T15:15:04.537Z,21.88
2022-10-05T15:17:38.987Z,21.85
2022-10-05T15:20:09.663Z,21.62
2022-10-05T15:23:00.485Z,21.41
2022-10-05T15:25:51.834Z,21.39
2022-10-05T15:28:40.671Z,21.20
2022-10-05T15:31:46.759Z,21.02
2022-10-05T15:34:24.594Z,20.87
2022-10-05T15:37:04.423Z,20.82
2022-10-05T15:39:36.008Z,20.53
2022-10-05T15:42:10.030Z,20.48
2022-10-05T15:45:06.547Z,20.39
2022-10-05T15:48:04.118Z,20.28
2022-10-05T15:50:56.957Z,20.01
2022-10-05T15:53:39.487Z,19.92
2022-10-05T15:56:34.721Z,20.03
2022-10-05T15:59:43.819Z,19.88
2022-10-05T16:02:19.748Z,19.85
2022-10-05T16:05:15.999Z,19.75
2022-10-05T16:08:08.378Z,19.57
2022-10-05T16:10:39.888Z,19.45
2022-10-05T16:13:28.760Z,19.56
2022-10-05T16:16:12.701Z,19.62
2022-10-05T16:18:55.119Z,19.52
2022-10-05T16:21:48.782Z,19.45
2022-10-05T16:24:24.702Z,19.42
2022-10-05T16:27:00.831Z,19.39
2022-10-05T16:29:45.952Z,19.08
2022-10-05T16:32:19.143Z,18.72
2022-10-05T16:35:01.235Z,18.63
2022-10-05T16:37:37.941Z,19.04
2022-10-05T16:41:01.985Z,18.80
2022-10-05T16:43:59.927Z,18.71
2022-10-05T16:46:42.624Z,18.60
2022-10-05T16:49:28.288Z,18.59
2022-10-05T16:52:01.141Z,18.39
2022-10-05T16:54:42.192Z,18.28
2022-10-05T16:57:31.662Z,18.46
2022-10-05T17:00:19.500Z,18.32
2022-10-05T17:03:21.369Z,18.38
2022-10-05T17:06:13.150Z,17.92
2022-10-05T17:09:08.034Z,17.97
2022-10-05T17:11:53.556Z,17.81
2022-10-05T17:14:44.461Z,17.84
2022-10-05T17:17:35.628Z,18.04
2022-10-05T17:20:17.717Z,18.01
2022-10-05T17:22:55.819Z,18.01
2022-10-05T17:25:45.087Z,18.03
2022-10-05T17:28:12.877Z,18.02
2022-10-05T17:30:48.793Z,17.97
2022-10-05T17:33:20.537Z,17.91
2022-10-05T17:36:12.944Z,17.99
2022-10-05T17:39:12.261Z,17.83
2022-10-05T17:41:39.207Z,17.65
2022-10-05T17:44:16.384Z,17.62
2022-10-05T17:46:47.491Z,17.56
2022-10-05T17:49:22.487Z,17.59
2022-10-05T17:52:07.775Z,17.68
2022-10-05T17:55:27.399Z,17.76
2022-10-05T17:57:58.721Z,17.84
2022-10-05T18:00:25.877Z,17.80
2022-10-05T18:02:56.553Z,17.52
2022-10-05T18:05:27.850Z,17.05
2022-10-05T18:08:37.230Z,16.91
2022-10-05T18:11:33.573Z,16.78
2022-10-05T18:14:23.274Z,16.50
2022-10-05T18:17:10.414Z,16.57
2022-10-05T18:19:39.638Z,16.45
2022-10-05T18:22:27.890Z,16.20
2022-10-05T18:25:06.560Z,16.46
2022-10-05T18:28:06.376Z,16.58
2022-10-05T18:30:53.559Z,16.13
2022-10-05T18:33:42.455Z,16.21
2022-10-05T18:36:44.644Z,16.34
2022-10-05T18:39:45.769Z,16.51
2022-10-05T18:42:34.189Z,16.55
2022-10-05T18:45:21.951Z,16.63
2022-10-05T18:48:17.419Z,16.57
2022-10-05T18:51:21.567Z,16.33
2022-10-05T18:54:09.702Z,16.50
2022-10-05T18:56:38.572Z,16.26
2022-10-05T18:59:36.407Z,16.24
2022-10-05T19:02:23.220Z,16.46
2022-10-05T19:05:05.288Z,16.50
2022-10-05T19:08:13.472Z,16.51
2022-10-05T19:10:40.254Z,16.77
2022-10-05T19:13:26.095Z,16.61
2022-10-05T19:15:58.800Z,16.64
2022-10-05T19:18:36.951Z,16.65
2022-10-05T19:21:29.629Z,16.71
2022-10-05T19:24:02.361Z,16.63
2022-10-05T19:27:06.819Z,16.67
2022-10-05T19:29:42.640Z,16.49
2022-10-05T19:32:27.206Z,16.29
2022-10-05T19:35:04.402Z,16.26
2022-10-05T19:37:53.117Z,16.24
2022-10-05T19:40:34.927Z,16.12
2022-10-05T19:43:01.648Z,16.24
2022-10-05T19:45:32.305Z,16.13
2022-10-05T19:48:09.761Z,16.37
2022-10-05T19:50:40.003Z,16.34
2022-10-05T19:53:25.344Z,16.09
2022-10-05T19:55:55.532Z,16.08
2022-10-05T19:58:31.628Z,16.25
2022-10-05T20:01:00.705Z,16.03
2022-10-05T20:03:38.018Z,15.84
2022-10-05T20:06:07.757Z,15.88
2022-10-05T20:08:47.005Z,15.81
2022-10-05T20:11:32.477Z,15.70
2022-10-05T20:14:02.346Z,15.72
2022-10-05T20:16:52.777Z,15.54
2022-10-05T20:19:44.230Z,15.64
2022-10-05T20:22:34.486Z,15.52
2022-10-05T20:25:15.794Z,15.62
2022-10-05T20:27:55.086Z,15.55
2022-10-05T20:30:27.861Z,15.48
2022-10-05T20:33:00.659Z,15.56
2022-10-05T20:35:30.901Z,15.60
2022-10-05T20:38:00.202Z,15.56
2022-10-05T20:40:29.258Z,15.42
2022-10-05T20:42:57.396Z,15.26
2022-10-05T20:45:24.335Z,14.95
2022-10-05T20:47:51.133Z,14.75
2022-10-05T20:50:18.058Z,14.81
2022-10-05T20:52:44.921Z,14.65
2022-10-05T20:55:12.532Z,14.53
2022-10-05T20:57:42.247Z,14.35
2022-10-05T21:00:11.423Z,14.38
2022-10-05T21:02:39.575Z,14.30
2022-10-05T21:05:07.855Z,14.42
2022-10-05T21:07:35.089Z,14.29
2022-10-05T21:10:03.851Z,14.51
2022-10-05T21:12:31.022Z,14.64
2022-10-05T21:14:59.846Z,14.59
2022-10-05T21:17:27.271Z,14.74
2022-10-05T21:19:54.119Z,14.80
2022-10-05T21:22:20.912Z,14.71
2022-10-05T21:24:48.495Z,14.63
2022-10-05T21:27:15.275Z,14.65
2022-10-05T21:29:42.341Z,14.78
2022-10-05T21:32:11.791Z,14.79
2022-10-05T21:34:39.884Z,14.50
2022-10-05T21:37:07.956Z,14.45
2022-10-05T21:39:35.380Z,14.58
2022-10-05T21:42:02.319Z,14.40
2022-10-05T21:44:29.253Z,14.53
2022-10-05T21:46:56.700Z,14.36
2022-10-05T21:49:24.610Z,14.31
2022-10-05T21:51:51.652Z,14.31
2022-10-05T21:54:22.165Z,14.30
2022-10-05T21:56:52.790Z,14.40
2022-10-05T21:59:23.498Z,14.36
2022-10-05T22:01:50.350Z,14.02
2022-10-05T22:04:17.398Z,14.03
2022-10-05T22:06:44.344Z,14.23
2022-10-05T22:09:11.202Z,14.00
2022-10-05T22:11:38.390Z,13.93
2022-10-05T22:14:05.253Z,13.92
2022-10-05T22:16:35.395Z,13.75
2022-10-05T22:19:05.212Z,13.76
2022-10-05T22:21:37.890Z,13.59
2022-10-05T22:24:05.170Z,13.46
2022-10-05T22:26:32.522Z,13.35
2022-10-05T22:29:00.277Z,13.24
2022-10-05T22:31:27.192Z,12.88
2022-10-05T22:33:54.172Z,13.04
2022-10-05T22:36:21.499Z,13.16
2022-10-05T22:38:48.374Z,12.81
2022-10-05T22:41:18.332Z,12.73
2022-10-05T22:43:48.778Z,12.99
2022-10-05T22:46:15.788Z,12.83
2022-10-05T22:48:43.266Z,12.89
2022-10-05T22:51:10.411Z,12.77
2022-10-05T22:53:37.526Z,13.25
2022-10-05T22:56:12.799Z,13.21
2022-10-05T22:58:41.229Z,13.17
2022-10-05T23:01:10.555Z,13.22
2022-10-05T23:03:37.485Z,13.17
2022-10-05T23:06:15.725Z,12.98
2022-10-05T23:08:43.064Z,12.85
2022-10-05T23:11:15.387Z,13.05
2022-10-05T23:13:42.566Z,13.04
2022-10-05T23:16:18.289Z,13.22
2022-10-05T23:18:47.263Z,13.12
2022-10-05T23:21:14.410Z,13.34
2022-10-05T23:23:47.455Z,13.00
2022-10-05T23:26:14.915Z,12.89
2022-10-05T23:28:46.580Z,12.93
2022-10-05T23:31:22.547Z,13.07
2022-10-05T23:33:49.854Z,13.22
2022-10-05T23:36:28.039Z,13.04
2022-10-05T23:38:54.728Z,13.02
2022-10-05T23:41:21.646Z,13.04
2022-10-05T23:43:48.682Z,12.86
2022-10-05T23:46:16.122Z,12.83
2022-10-05T23:48:43.007Z,13.00
2022-10-05T23:51:12.132Z,12.84
2022-10-05T23:53:39.377Z,12.93
2022-10-05T23:56:06.609Z,12.55
2022-10-05T23:58:33.457Z,12.24
